DAB - Daytona Beach Intl

Pirep is a free, collaborative database of all public and private airports located within the United States. All pilots are welcome to contribute, edit, and improve any airport they have local knowledge about, no registration required.
Are you familiar with this airport? Help out other pilots by adding your local knowledge.
Uploaded photos will be licensed under a CC BY-SA 4.0 license. Please only upload photos you have the rights to use.
Tags
Public
Undocu­mented
METAR / TAF
Events
Edit Tags
Food
Camping
Lodging
Car Rental
Bicycles
Swimming
Golfing
Fishing
Hot Springs
Museum
Flying Clubs
Airpark
Upcoming Events
*
*
*

Where exactly on/near the airport is this event taking place?

Is there a webpage with more information for this event?

Who should be contacted for more information?

What is this event all about?

Repeat every
Description
Transient Parking
Fuel Location
Landing & Tie-down Fees
Crew Car Availability
Flying Clubs
WiFi Access
Airport Statistics
Location: Daytona Beach, FL
Elevation: 34ft
Sectional: Jacksonville
Activation date: Apr 1940
Fuel: 100LL, A (prices)
Runway 07L/25R: 10,500ft
Runway 16/34: 6,001ft
Runway 07R/25L: 3,195ft
Access: Open to the public
Current Weather — VFR
  • Weather data is strictly informational and not for flight planning purposes.
  • METAR
    2024-05-28 17:53:00 EDT
    Ceiling Wind Temperature Dewpoint Weather Visbility
    Sky clear 240° @ 6kt 87°F 71°F N/A 10SM
    Clouds: Few @ 5,000ft, Few @ 12,000ft, Scattered @ 20,000ft
    Raw: KDAB 282153Z 24006KT 10SM FEW050 FEW120 SCT200 31/22 A2994 RMK AO2 SLP136 T03110217
  • TAF
    2024-05-28 14:00:00 EDT – 2024-05-28 17:00:00 EDT
    Ceiling Wind Weather Visbility
    15,000ft 240° @ 10kt Thunderstorm in vicinity 6SM
    Clouds: Scattered @ 4,000ft, Broken @ 15,000ft, Broken @ 25,000ft
    Raw: KDAB 281720Z 2818/2918 24010KT P6SM VCTS SCT040CB BKN150 BKN250 FM282100 28008KT P6SM VCSH SCT080 SCT250 FM290000 VRB04KT P6SM SCT090 FM291500 01008KT P6SM FEW050 FEW250
  • TAF
    2024-05-28 17:00:00 EDT – 2024-05-28 20:00:00 EDT
    Ceiling Wind Weather Visbility
    Sky clear 280° @ 8kt Showers in vicinity 6SM
    Clouds: Scattered @ 8,000ft, Scattered @ 25,000ft
    Raw: KDAB 281720Z 2818/2918 24010KT P6SM VCTS SCT040CB BKN150 BKN250 FM282100 28008KT P6SM VCSH SCT080 SCT250 FM290000 VRB04KT P6SM SCT090 FM291500 01008KT P6SM FEW050 FEW250
  • TAF
    2024-05-28 20:00:00 EDT – 2024-05-29 11:00:00 EDT
    Ceiling Wind Weather Visbility
    Sky clear Variable N/A 6SM
    Clouds: Scattered @ 9,000ft
    Raw: KDAB 281720Z 2818/2918 24010KT P6SM VCTS SCT040CB BKN150 BKN250 FM282100 28008KT P6SM VCSH SCT080 SCT250 FM290000 VRB04KT P6SM SCT090 FM291500 01008KT P6SM FEW050 FEW250
  • TAF
    2024-05-29 11:00:00 EDT – 2024-05-29 14:00:00 EDT
    Ceiling Wind Weather Visbility
    Sky clear 10° @ 8kt N/A 6SM
    Clouds: Few @ 5,000ft, Few @ 25,000ft
    Raw: KDAB 281720Z 2818/2918 24010KT P6SM VCTS SCT040CB BKN150 BKN250 FM282100 28008KT P6SM VCSH SCT080 SCT250 FM290000 VRB04KT P6SM SCT090 FM291500 01008KT P6SM FEW050 FEW250
Click/tap to add an annotation marker to the map
Airport Webcams
No webcams added yet.
Direct links to live image URLs will be displayed inline on this page. URLs to separate webpages will be linked to.
URL:
Direct links to live image URLs will be displayed inline on this page. URLs to separate webpages will be linked to.
URL:
Remarks
  • Hvy migratory bird act on & invof arpt.
  • Twy se end is non-movement area.
  • Twy e rstrd to 22000 lbs max crtfyd gross tkof weight; twy p rstrd to 190500 lbs max crtfyd gross tkof weight.
  • Twy "n" n of ry 7l-25r can be mistaken for the ry & apch environment.
  • Acft oprg rwy 07l use ctn, twy p3 & p4 have no signs no mrkgs.
Comments
Leave a comment What was your experience like at this airport?